sensor_id;sensor_type;location;lat;lon;timestamp;pressure;altitude;pressure_sealevel;temperature;humidity
3150;BME280;32503;47.748;8.960;2022-08-11T00:01:54;97149.88;;;23.16;36.92
3150;BME280;32503;47.748;8.960;2022-08-11T00:04:25;97150.13;;;23.05;37.35
3150;BME280;32503;47.748;8.960;2022-08-11T00:06:53;97157.56;;;23.04;37.25
3150;BME280;32503;47.748;8.960;2022-08-11T00:09:22;97150.19;;;23.01;37.23
3150;BME280;32503;47.748;8.960;2022-08-11T00:11:59;97150.13;;;23.05;37.35
3150;BME280;32503;47.748;8.960;2022-08-11T00:14:30;97152.16;;;23.01;37.41
3150;BME280;32503;47.748;8.960;2022-08-11T00:17:01;97147.84;;;23.00;37.50
3150;BME280;32503;47.748;8.960;2022-08-11T00:19:33;97152.22;;;22.97;37.50
3150;BME280;32503;47.748;8.960;2022-08-11T00:22:02;97148.78;;;22.93;37.63
3150;BME280;32503;47.748;8.960;2022-08-11T00:24:33;97148.78;;;22.93;37.59
3150;BME280;32503;47.748;8.960;2022-08-11T00:27:04;97146.03;;;22.93;37.63
3150;BME280;32503;47.748;8.960;2022-08-11T00:29:32;97145.28;;;22.93;37.59
3150;BME280;32503;47.748;8.960;2022-08-11T00:32:03;97149.66;;;22.90;37.70
3150;BME280;32503;47.748;8.960;2022-08-11T00:34:35;97132.69;;;22.75;37.67
3150;BME280;32503;47.748;8.960;2022-08-11T00:37:07;97150.50;;;22.87;37.74
3150;BME280;32503;47.748;8.960;2022-08-11T00:39:42;97148.09;;;22.89;38.00
3150;BME280;32503;47.748;8.960;2022-08-11T00:42:24;97133.28;;;22.83;37.98
3150;BME280;32503;47.748;8.960;2022-08-11T00:45:06;97142.41;;;22.80;38.19
3150;BME280;32503;47.748;8.960;2022-08-11T00:47:49;97132.59;;;22.79;38.09
3150;BME280;32503;47.748;8.960;2022-08-11T00:50:27;97115.25;;;22.62;38.28
3150;BME280;32503;47.748;8.960;2022-08-11T00:53:30;97137.56;;;22.67;38.43
3150;BME280;32503;47.748;8.960;2022-08-11T00:56:43;97133.78;;;22.61;38.51
3150;BME280;32503;47.748;8.960;2022-08-11T01:00:03;97144.44;;;22.59;38.57
3150;BME280;32503;47.748;8.960;2022-08-11T01:03:04;97119.25;;;22.41;38.91
3150;BME280;32503;47.748;8.960;2022-08-11T01:05:46;97140.97;;;22.55;38.85
3150;BME280;32503;47.748;8.960;2022-08-11T01:08:45;97137.88;;;22.53;38.88
3150;BME280;32503;47.748;8.960;2022-08-11T01:12:09;97130.63;;;22.43;39.08
3150;BME280;32503;47.748;8.960;2022-08-11T01:15:33;97119.25;;;22.41;39.33
3150;BME280;32503;47.748;8.960;2022-08-11T01:18:52;97137.34;;;22.42;39.35
3150;BME280;32503;47.748;8.960;2022-08-11T01:22:24;97132.00;;;22.34;39.42
3150;BME280;32503;47.748;8.960;2022-08-11T01:25:53;97125.75;;;22.30;39.76
3150;BME280;32503;47.748;8.960;2022-08-11T01:29:20;97133.25;;;22.30;40.12
3150;BME280;32503;47.748;8.960;2022-08-11T01:35:34;97139.31;;;22.21;40.84
3150;BME280;32503;47.748;8.960;2022-08-11T01:38:41;97139.09;;;22.12;40.89
3150;BME280;32503;47.748;8.960;2022-08-11T01:41:30;97128.09;;;21.92;41.36
3150;BME280;32503;47.748;8.960;2022-08-11T01:44:34;97137.91;;;21.93;41.12
3150;BME280;32503;47.748;8.960;2022-08-11T01:47:21;97131.56;;;21.76;41.06
3150;BME280;32503;47.748;8.960;2022-08-11T01:53:03;97144.94;;;21.74;41.06
3150;BME280;32503;47.748;8.960;2022-08-11T01:55:38;97141.56;;;21.66;41.15
3150;BME280;32503;47.748;8.960;2022-08-11T01:58:16;97137.44;;;21.54;41.27
3150;BME280;32503;47.748;8.960;2022-08-11T02:00:57;97136.72;;;21.50;41.47
3150;BME280;32503;47.748;8.960;2022-08-11T02:03:42;97143.06;;;21.47;41.58
3150;BME280;32503;47.748;8.960;2022-08-11T02:06:21;97139.28;;;21.37;41.50
3150;BME280;32503;47.748;8.960;2022-08-11T02:09:17;97121.19;;;21.16;41.52
3150;BME280;32503;47.748;8.960;2022-08-11T02:11:48;97128.94;;;21.21;41.73
3150;BME280;32503;47.748;8.960;2022-08-11T02:14:41;97142.28;;;21.23;41.91
3150;BME280;32503;47.748;8.960;2022-08-11T02:17:18;97143.53;;;21.18;42.12
3150;BME280;32503;47.748;8.960;2022-08-11T02:19:53;97134.19;;;21.12;41.95
3150;BME280;32503;47.748;8.960;2022-08-11T02:22:53;97145.97;;;21.13;42.28
3150;BME280;32503;47.748;8.960;2022-08-11T02:25:54;97123.53;;;20.91;42.36
3150;BME280;32503;47.748;8.960;2022-08-11T02:28:29;97135.97;;;20.99;42.28
3150;BME280;32503;47.748;8.960;2022-08-11T02:31:12;97137.53;;;21.00;42.48
3150;BME280;32503;47.748;8.960;2022-08-11T02:34:11;97125.09;;;20.92;42.64
3150;BME280;32503;47.748;8.960;2022-08-11T02:36:54;97133.75;;;20.90;42.68
3150;BME280;32503;47.748;8.960;2022-08-11T02:39:39;97120.44;;;20.89;42.68
3150;BME280;32503;47.748;8.960;2022-08-11T02:42:30;97101.00;;;20.76;42.89
3150;BME280;32503;47.748;8.960;2022-08-11T02:45:26;97116.69;;;20.79;42.96
3150;BME280;32503;47.748;8.960;2022-08-11T02:48:03;97102.72;;;20.66;43.26
3150;BME280;32503;47.748;8.960;2022-08-11T02:51:08;97121.06;;;20.73;43.29
3150;BME280;32503;47.748;8.960;2022-08-11T02:53:45;97121.13;;;20.69;43.16
3150;BME280;32503;47.748;8.960;2022-08-11T02:56:29;97130.94;;;20.70;43.01
3150;BME280;32503;47.748;8.960;2022-08-11T02:59:05;97118.44;;;20.66;43.39
3150;BME280;32503;47.748;8.960;2022-08-11T03:01:57;97125.06;;;20.68;43.71
3150;BME280;32503;47.748;8.960;2022-08-11T03:04:36;97116.88;;;20.61;44.05
3150;BME280;32503;47.748;8.960;2022-08-11T03:07:22;97106.47;;;20.49;44.63
3150;BME280;32503;47.748;8.960;2022-08-11T03:09:59;97127.25;;;20.50;45.06
3150;BME280;32503;47.748;8.960;2022-08-11T03:12:35;97124.91;;;20.48;44.96
3150;BME280;32503;47.748;8.960;2022-08-11T03:15:29;97130.50;;;20.41;45.29
3150;BME280;32503;47.748;8.960;2022-08-11T03:18:23;97108.78;;;20.23;45.62
3150;BME280;32503;47.748;8.960;2022-08-11T03:21:01;97127.09;;;20.33;45.43
3150;BME280;32503;47.748;8.960;2022-08-11T03:23:38;97130.56;;;20.37;45.38
3150;BME280;32503;47.748;8.960;2022-08-11T03:26:22;97123.16;;;20.34;45.74
3150;BME280;32503;47.748;8.960;2022-08-11T03:29:00;97127.56;;;20.28;45.80
3150;BME280;32503;47.748;8.960;2022-08-11T03:31:39;97130.81;;;20.19;46.00
3150;BME280;32503;47.748;8.960;2022-08-11T03:34:16;97130.00;;;20.19;46.18
3150;BME280;32503;47.748;8.960;2022-08-11T03:37:18;97134.03;;;20.11;46.46
3150;BME280;32503;47.748;8.960;2022-08-11T03:40:19;97142.72;;;20.05;46.70
3150;BME280;32503;47.748;8.960;2022-08-11T03:43:18;97136.59;;;19.94;47.09
3150;BME280;32503;47.748;8.960;2022-08-11T03:45:55;97133.53;;;19.85;47.18
3150;BME280;32503;47.748;8.960;2022-08-11T03:48:39;97118.03;;;19.67;47.63
3150;BME280;32503;47.748;8.960;2022-08-11T03:51:17;97132.09;;;19.77;47.37
3150;BME280;32503;47.748;8.960;2022-08-11T03:54:04;97139.91;;;19.75;47.52
3150;BME280;32503;47.748;8.960;2022-08-11T04:00:54;97141.59;;;19.61;47.34
3150;BME280;32503;47.748;8.960;2022-08-11T04:03:56;97129.88;;;19.61;47.28
3150;BME280;32503;47.748;8.960;2022-08-11T04:10:10;97138.41;;;19.66;47.11
3150;BME280;32503;47.748;8.960;2022-08-11T04:16:38;97143.91;;;19.66;47.17
3150;BME280;32503;47.748;8.960;2022-08-11T04:22:53;97148.59;;;19.69;47.02
3150;BME280;32503;47.748;8.960;2022-08-11T04:26:11;97143.47;;;19.72;47.01
3150;BME280;32503;47.748;8.960;2022-08-11T04:29:04;97148.59;;;19.69;46.93
3150;BME280;32503;47.748;8.960;2022-08-11T04:31:39;97144.25;;;19.72;47.11
3150;BME280;32503;47.748;8.960;2022-08-11T04:34:50;97149.19;;;19.88;46.78
3150;BME280;32503;47.748;8.960;2022-08-11T04:38:04;97152.19;;;20.01;46.59
3150;BME280;32503;47.748;8.960;2022-08-11T04:41:49;97151.56;;;20.20;45.97
3150;BME280;32503;47.748;8.960;2022-08-11T04:45:32;97137.69;;;20.31;45.62
3150;BME280;32503;47.748;8.960;2022-08-11T04:48:50;97149.47;;;20.59;45.11
3150;BME280;32503;47.748;8.960;2022-08-11T04:52:19;97150.66;;;20.89;44.55
3150;BME280;32503;47.748;8.960;2022-08-11T04:55:40;97130.84;;;21.01;43.68
3150;BME280;32503;47.748;8.960;2022-08-11T04:58:43;97141.38;;;21.30;43.67
3150;BME280;32503;47.748;8.960;2022-08-11T05:01:47;97143.28;;;21.56;43.26
3150;BME280;32503;47.748;8.960;2022-08-11T05:04:45;97142.34;;;21.87;42.53
3150;BME280;32503;47.748;8.960;2022-08-11T05:11:31;97164.81;;;22.45;40.91
3150;BME280;32503;47.748;8.960;2022-08-11T05:14:29;97147.88;;;22.63;41.04
3150;BME280;32503;47.748;8.960;2022-08-11T05:17:30;97163.69;;;22.96;40.38
3150;BME280;32503;47.748;8.960;2022-08-11T05:20:17;97167.19;;;23.16;39.83
3150;BME280;32503;47.748;8.960;2022-08-11T05:23:05;97165.13;;;23.37;39.60
3150;BME280;32503;47.748;8.960;2022-08-11T05:25:54;97153.78;;;23.64;38.98
3150;BME280;32503;47.748;8.960;2022-08-11T05:28:49;97165.50;;;23.84;38.66
3150;BME280;32503;47.748;8.960;2022-08-11T05:31:38;97173.53;;;24.08;38.19
3150;BME280;32503;47.748;8.960;2022-08-11T05:34:27;97167.94;;;24.25;37.70
3150;BME280;32503;47.748;8.960;2022-08-11T05:37:17;97161.81;;;24.46;37.88
3150;BME280;32503;47.748;8.960;2022-08-11T05:39:48;97167.72;;;24.74;37.09
3150;BME280;32503;47.748;8.960;2022-08-11T05:42:38;97169.47;;;24.93;36.96
3150;BME280;32503;47.748;8.960;2022-08-11T05:45:28;97172.69;;;25.30;35.95
3150;BME280;32503;47.748;8.960;2022-08-11T05:48:13;97170.00;;;25.52;35.62
3150;BME280;32503;47.748;8.960;2022-08-11T05:51:00;97165.16;;;25.79;35.15
3150;BME280;32503;47.748;8.960;2022-08-11T05:53:49;97168.28;;;26.03;34.76
3150;BME280;32503;47.748;8.960;2022-08-11T05:56:43;97169.06;;;26.25;34.15
3150;BME280;32503;47.748;8.960;2022-08-11T05:59:16;97165.50;;;26.47;34.25
3150;BME280;32503;47.748;8.960;2022-08-11T06:01:46;97174.56;;;26.70;33.48
3150;BME280;32503;47.748;8.960;2022-08-11T06:04:18;97172.53;;;26.92;33.38
3150;BME280;32503;47.748;8.960;2022-08-11T06:06:57;97164.25;;;27.11;33.07
3150;BME280;32503;47.748;8.960;2022-08-11T06:09:31;97172.03;;;27.25;32.63
3150;BME280;32503;47.748;8.960;2022-08-11T06:12:03;97171.78;;;27.41;32.68
3150;BME280;32503;47.748;8.960;2022-08-11T06:14:31;97166.38;;;27.56;32.53
3150;BME280;32503;47.748;8.960;2022-08-11T06:17:03;97164.53;;;27.53;31.81
3150;BME280;32503;47.748;8.960;2022-08-11T06:19:37;97149.88;;;27.43;31.72
3150;BME280;32503;47.748;8.960;2022-08-11T06:22:09;97163.28;;;27.54;31.64
3150;BME280;32503;47.748;8.960;2022-08-11T06:24:40;97161.00;;;27.62;31.60
3150;BME280;32503;47.748;8.960;2022-08-11T06:27:08;97170.41;;;27.74;31.17
3150;BME280;32503;47.748;8.960;2022-08-11T06:29:36;97165.66;;;27.74;31.08
3150;BME280;32503;47.748;8.960;2022-08-11T06:32:11;97161.94;;;27.87;31.38
3150;BME280;32503;47.748;8.960;2022-08-11T06:35:02;97163.66;;;27.93;31.23
3150;BME280;32503;47.748;8.960;2022-08-11T06:37:43;97156.25;;;27.99;31.11
3150;BME280;32503;47.748;8.960;2022-08-11T06:40:22;97167.81;;;28.26;30.79
3150;BME280;32503;47.748;8.960;2022-08-11T06:42:56;97171.28;;;28.45;30.60
3150;BME280;32503;47.748;8.960;2022-08-11T06:45:31;97154.31;;;28.43;30.54
3150;BME280;32503;47.748;8.960;2022-08-11T06:48:03;97165.72;;;28.63;29.83
3150;BME280;32503;47.748;8.960;2022-08-11T06:50:32;97166.63;;;28.79;29.93
3150;BME280;32503;47.748;8.960;2022-08-11T06:53:18;97166.81;;;28.99;30.18
3150;BME280;32503;47.748;8.960;2022-08-11T06:55:47;97156.38;;;28.85;30.28
3150;BME280;32503;47.748;8.960;2022-08-11T06:58:36;97180.38;;;29.06;30.16
3150;BME280;32503;47.748;8.960;2022-08-11T07:01:39;97172.63;;;29.20;29.90
3150;BME280;32503;47.748;8.960;2022-08-11T07:04:20;97172.94;;;29.22;29.62
3150;BME280;32503;47.748;8.960;2022-08-11T07:07:01;97171.34;;;29.30;29.77
3150;BME280;32503;47.748;8.960;2022-08-11T07:10:25;97176.38;;;29.41;29.46
3150;BME280;32503;47.748;8.960;2022-08-11T07:13:14;97172.50;;;29.38;29.26
3150;BME280;32503;47.748;8.960;2022-08-11T07:16:00;97165.25;;;29.41;29.38
3150;BME280;32503;47.748;8.960;2022-08-11T07:18:32;97175.97;;;29.57;29.86
3150;BME280;32503;47.748;8.960;2022-08-11T07:21:23;97177.72;;;29.69;29.38
3150;BME280;32503;47.748;8.960;2022-08-11T07:24:16;97174.66;;;29.92;29.06
3150;BME280;32503;47.748;8.960;2022-08-11T07:27:10;97183.78;;;30.07;28.24
3150;BME280;32503;47.748;8.960;2022-08-11T07:29:56;97172.59;;;30.16;28.21
3150;BME280;32503;47.748;8.960;2022-08-11T07:32:28;97169.31;;;30.33;28.13
3150;BME280;32503;47.748;8.960;2022-08-11T07:35:03;97174.91;;;30.33;28.21
3150;BME280;32503;47.748;8.960;2022-08-11T07:37:35;97174.53;;;30.40;28.05
3150;BME280;32503;47.748;8.960;2022-08-11T07:40:04;97170.41;;;30.50;28.11
3150;BME280;32503;47.748;8.960;2022-08-11T07:42:33;97172.31;;;30.44;28.85
3150;BME280;32503;47.748;8.960;2022-08-11T07:45:04;97167.63;;;30.50;28.68
3150;BME280;32503;47.748;8.960;2022-08-11T07:47:51;97172.81;;;30.57;27.92
3150;BME280;32503;47.748;8.960;2022-08-11T07:50:40;97161.84;;;30.69;28.30
3150;BME280;32503;47.748;8.960;2022-08-11T07:53:27;97171.63;;;30.79;28.02
3150;BME280;32503;47.748;8.960;2022-08-11T07:56:00;97162.88;;;30.86;28.06
3150;BME280;32503;47.748;8.960;2022-08-11T07:58:29;97160.44;;;31.09;27.58
3150;BME280;32503;47.748;8.960;2022-08-11T08:01:20;97158.53;;;31.00;27.27
3150;BME280;32503;47.748;8.960;2022-08-11T08:04:07;97168.34;;;30.95;27.08
3150;BME280;32503;47.748;8.960;2022-08-11T08:06:52;97165.13;;;30.52;27.17
3150;BME280;32503;47.748;8.960;2022-08-11T08:09:40;97164.38;;;29.98;28.11
3150;BME280;32503;47.748;8.960;2022-08-11T08:12:26;97162.16;;;30.02;28.66
3150;BME280;32503;47.748;8.960;2022-08-11T08:15:13;97164.88;;;30.26;29.05
3150;BME280;32503;47.748;8.960;2022-08-11T08:18:02;97161.75;;;30.48;29.04
3150;BME280;32503;47.748;8.960;2022-08-11T08:20:34;97159.91;;;30.75;29.07
3150;BME280;32503;47.748;8.960;2022-08-11T08:23:02;97149.59;;;30.81;28.14
3150;BME280;32503;47.748;8.960;2022-08-11T08:25:35;97164.81;;;30.95;27.88
3150;BME280;32503;47.748;8.960;2022-08-11T08:28:08;97165.09;;;30.82;27.75
3150;BME280;32503;47.748;8.960;2022-08-11T08:30:36;97165.63;;;30.36;28.05
3150;BME280;32503;47.748;8.960;2022-08-11T08:33:14;97158.72;;;30.07;28.48
3150;BME280;32503;47.748;8.960;2022-08-11T08:35:43;97146.41;;;30.14;28.90
3150;BME280;32503;47.748;8.960;2022-08-11T08:38:13;97155.47;;;30.23;28.34
3150;BME280;32503;47.748;8.960;2022-08-11T08:40:42;97164.28;;;29.92;28.76
3150;BME280;32503;47.748;8.960;2022-08-11T08:43:15;97168.38;;;29.58;29.63
3150;BME280;32503;47.748;8.960;2022-08-11T08:45:44;97163.47;;;29.53;30.23
3150;BME280;32503;47.748;8.960;2022-08-11T08:48:14;97158.50;;;29.81;29.37
3150;BME280;32503;47.748;8.960;2022-08-11T08:50:51;97158.50;;;29.81;29.46
3150;BME280;32503;47.748;8.960;2022-08-11T08:53:42;97160.06;;;29.97;29.77
3150;BME280;32503;47.748;8.960;2022-08-11T08:56:13;97158.47;;;30.20;29.56
3150;BME280;32503;47.748;8.960;2022-08-11T08:58:43;97158.50;;;29.96;29.59
3150;BME280;32503;47.748;8.960;2022-08-11T09:01:14;97168.91;;;29.71;29.82
3150;BME280;32503;47.748;8.960;2022-08-11T09:03:42;97166.13;;;29.71;30.17
3150;BME280;32503;47.748;8.960;2022-08-11T09:06:10;97153.31;;;30.03;30.79
3150;BME280;32503;47.748;8.960;2022-08-11T09:08:40;97156.75;;;29.83;30.38
3150;BME280;32503;47.748;8.960;2022-08-11T09:11:08;97162.16;;;30.02;30.29
3150;BME280;32503;47.748;8.960;2022-08-11T09:13:55;97158.47;;;30.35;30.96
3150;BME280;32503;47.748;8.960;2022-08-11T09:16:23;97147.69;;;30.72;30.26
3150;BME280;32503;47.748;8.960;2022-08-11T09:18:51;97158.31;;;31.18;29.40
3150;BME280;32503;47.748;8.960;2022-08-11T09:21:19;97141.44;;;30.92;28.69
3150;BME280;32503;47.748;8.960;2022-08-11T09:23:49;97163.56;;;30.96;29.63
3150;BME280;32503;47.748;8.960;2022-08-11T09:26:35;97161.25;;;30.94;29.32
3150;BME280;32503;47.748;8.960;2022-08-11T09:29:27;97156.63;;;30.17;29.63
3150;BME280;32503;47.748;8.960;2022-08-11T09:31:56;97153.16;;;30.22;30.48
3150;BME280;32503;47.748;8.960;2022-08-11T09:34:25;97155.53;;;30.14;30.57
3150;BME280;32503;47.748;8.960;2022-08-11T09:36:53;97152.91;;;29.57;31.28
3150;BME280;32503;47.748;8.960;2022-08-11T09:39:40;97158.09;;;28.73;32.35
3150;BME280;32503;47.748;8.960;2022-08-11T09:42:25;97146.78;;;28.34;32.81
3150;BME280;32503;47.748;8.960;2022-08-11T09:45:15;97150.38;;;28.77;33.58
3150;BME280;32503;47.748;8.960;2022-08-11T09:47:43;97148.97;;;29.24;32.87
3150;BME280;32503;47.748;8.960;2022-08-11T09:50:14;97128.38;;;29.22;31.82
3150;BME280;32503;47.748;8.960;2022-08-11T09:52:43;97150.16;;;29.72;32.03
3150;BME280;32503;47.748;8.960;2022-08-11T09:55:14;97165.69;;;29.15;31.81
3150;BME280;32503;47.748;8.960;2022-08-11T09:57:45;97158.13;;;29.16;32.47
3150;BME280;32503;47.748;8.960;2022-08-11T10:00:34;97147.53;;;29.29;32.44
3150;BME280;32503;47.748;8.960;2022-08-11T10:03:05;97158.59;;;29.62;32.02
3150;BME280;32503;47.748;8.960;2022-08-11T10:05:34;97150.63;;;29.70;32.44
3150;BME280;32503;47.748;8.960;2022-08-11T10:08:22;97148.06;;;30.20;31.79
3150;BME280;32503;47.748;8.960;2022-08-11T10:10:54;97138.66;;;30.33;30.77
3150;BME280;32503;47.748;8.960;2022-08-11T10:13:28;97145.88;;;30.54;31.09
3150;BME280;32503;47.748;8.960;2022-08-11T10:16:04;97157.59;;;30.29;30.50
3150;BME280;32503;47.748;8.960;2022-08-11T10:18:36;97149.72;;;30.42;30.83
3150;BME280;32503;47.748;8.960;2022-08-11T10:21:24;97146.16;;;30.71;31.36
3150;BME280;32503;47.748;8.960;2022-08-11T10:23:54;97146.44;;;30.73;30.18
3150;BME280;32503;47.748;8.960;2022-08-11T10:26:42;97134.03;;;30.59;30.93
3150;BME280;32503;47.748;8.960;2022-08-11T10:29:26;97142.09;;;30.87;31.26
3150;BME280;32503;47.748;8.960;2022-08-11T10:32:13;97145.75;;;30.78;30.01
3150;BME280;32503;47.748;8.960;2022-08-11T10:35:00;97144.34;;;30.38;30.77
3150;BME280;32503;47.748;8.960;2022-08-11T10:37:29;97139.03;;;30.25;31.48
3150;BME280;32503;47.748;8.960;2022-08-11T10:40:03;97130.47;;;30.14;31.25
3150;BME280;32503;47.748;8.960;2022-08-11T10:42:32;97134.88;;;30.06;31.85
3150;BME280;32503;47.748;8.960;2022-08-11T10:45:17;97145.41;;;30.41;32.05
3150;BME280;32503;47.748;8.960;2022-08-11T10:48:06;97133.06;;;30.77;31.43
3150;BME280;32503;47.748;8.960;2022-08-11T10:50:35;97136.88;;;31.10;31.47
3150;BME280;32503;47.748;8.960;2022-08-11T10:53:22;97129.69;;;31.44;30.62
3150;BME280;32503;47.748;8.960;2022-08-11T10:56:08;97135.78;;;31.63;30.35
3150;BME280;32503;47.748;8.960;2022-08-11T10:58:56;97137.88;;;31.68;29.70
3150;BME280;32503;47.748;8.960;2022-08-11T11:01:27;97125.56;;;31.81;30.46
3150;BME280;32503;47.748;8.960;2022-08-11T11:04:00;97118.13;;;31.72;29.30
3150;BME280;32503;47.748;8.960;2022-08-11T11:06:34;97125.84;;;31.42;30.71
3150;BME280;32503;47.748;8.960;2022-08-11T11:09:15;97122.63;;;31.28;30.76
3150;BME280;32503;47.748;8.960;2022-08-11T11:11:48;97121.78;;;31.02;31.29
3150;BME280;32503;47.748;8.960;2022-08-11T11:14:35;97122.63;;;31.28;30.94
3150;BME280;32503;47.748;8.960;2022-08-11T11:17:28;97116.38;;;30.98;30.90
3150;BME280;32503;47.748;8.960;2022-08-11T11:20:21;97122.44;;;30.96;31.48
3150;BME280;32503;47.748;8.960;2022-08-11T11:22:53;97118.28;;;31.07;31.57
3150;BME280;32503;47.748;8.960;2022-08-11T11:26:17;97118.22;;;30.86;30.80
3150;BME280;32503;47.748;8.960;2022-08-11T11:29:14;97112.63;;;30.36;31.05
3150;BME280;32503;47.748;8.960;2022-08-11T11:32:03;97097.97;;;30.56;31.75
3150;BME280;32503;47.748;8.960;2022-08-11T11:35:03;97115.69;;;30.38;31.70
3150;BME280;32503;47.748;8.960;2022-08-11T11:37:39;97105.47;;;29.90;32.68
3150;BME280;32503;47.748;8.960;2022-08-11T11:40:11;97104.81;;;30.10;32.23
3150;BME280;32503;47.748;8.960;2022-08-11T11:42:41;97105.69;;;30.46;32.71
3150;BME280;32503;47.748;8.960;2022-08-11T11:45:10;97107.00;;;30.66;31.66
3150;BME280;32503;47.748;8.960;2022-08-11T11:47:41;97101.88;;;30.94;31.49
3150;BME280;32503;47.748;8.960;2022-08-11T11:50:09;97082.94;;;30.68;31.92
3150;BME280;32503;47.748;8.960;2022-08-11T11:52:40;97093.91;;;30.72;31.07
3150;BME280;32503;47.748;8.960;2022-08-11T11:55:09;97086.66;;;30.45;31.66
3150;BME280;32503;47.748;8.960;2022-08-11T11:57:36;97090.88;;;30.40;31.73
3150;BME280;32503;47.748;8.960;2022-08-11T12:00:21;97082.88;;;30.48;32.60
3150;BME280;32503;47.748;8.960;2022-08-11T12:03:09;97088.44;;;30.62;31.63
3150;BME280;32503;47.748;8.960;2022-08-11T12:05:37;97081.19;;;30.71;31.23
3150;BME280;32503;47.748;8.960;2022-08-11T12:08:11;97085.34;;;31.11;31.43
3150;BME280;32503;47.748;8.960;2022-08-11T12:10:45;97069.38;;;31.32;30.40
3150;BME280;32503;47.748;8.960;2022-08-11T12:13:14;97069.84;;;31.30;30.67
3150;BME280;32503;47.748;8.960;2022-08-11T12:16:00;97070.28;;;31.23;30.09
3150;BME280;32503;47.748;8.960;2022-08-11T12:18:31;97077.69;;;31.26;30.10
3150;BME280;32503;47.748;8.960;2022-08-11T12:21:01;97058.41;;;31.28;29.41
3150;BME280;32503;47.748;8.960;2022-08-11T12:23:30;97062.31;;;31.36;30.19
3150;BME280;32503;47.748;8.960;2022-08-11T12:26:16;97060.50;;;31.13;30.95
3150;BME280;32503;47.748;8.960;2022-08-11T12:29:02;97051.91;;;31.16;30.45
3150;BME280;32503;47.748;8.960;2022-08-11T12:31:30;97056.31;;;31.03;29.57
3150;BME280;32503;47.748;8.960;2022-08-11T12:34:03;97052.81;;;31.08;30.02
3150;BME280;32503;47.748;8.960;2022-08-11T12:36:35;97051.47;;;31.24;29.62
3150;BME280;32503;47.748;8.960;2022-08-11T12:39:08;97037.72;;;31.20;30.86
3150;BME280;32503;47.748;8.960;2022-08-11T12:41:36;97025.91;;;30.90;31.42
3150;BME280;32503;47.748;8.960;2022-08-11T12:44:24;97043.94;;;31.09;30.64
3150;BME280;32503;47.748;8.960;2022-08-11T12:47:15;97035.31;;;31.07;30.08
3150;BME280;32503;47.748;8.960;2022-08-11T12:49:46;97032.34;;;31.16;29.94
3150;BME280;32503;47.748;8.960;2022-08-11T12:52:36;97035.78;;;31.26;30.08
3150;BME280;32503;47.748;8.960;2022-08-11T12:55:12;97037.66;;;31.14;30.30
3150;BME280;32503;47.748;8.960;2022-08-11T12:58:00;97021.28;;;31.22;30.40
3150;BME280;32503;47.748;8.960;2022-08-11T13:00:44;97008.13;;;31.08;29.98
3150;BME280;32503;47.748;8.960;2022-08-11T13:03:32;97028.38;;;31.44;30.37
3150;BME280;32503;47.748;8.960;2022-08-11T13:06:22;97021.59;;;31.77;30.09
3150;BME280;32503;47.748;8.960;2022-08-11T13:08:50;97028.72;;;32.04;30.04
3150;BME280;32503;47.748;8.960;2022-08-11T13:11:20;97016.97;;;32.26;29.34
3150;BME280;32503;47.748;8.960;2022-08-11T13:14:05;97014.56;;;32.07;28.04
3150;BME280;32503;47.748;8.960;2022-08-11T13:16:34;97009.00;;;31.87;28.50
3150;BME280;32503;47.748;8.960;2022-08-11T13:19:23;97016.19;;;31.93;28.30
3150;BME280;32503;47.748;8.960;2022-08-11T13:21:51;97007.28;;;31.63;28.67
3150;BME280;32503;47.748;8.960;2022-08-11T13:24:19;97016.22;;;31.47;28.97
3150;BME280;32503;47.748;8.960;2022-08-11T13:26:49;97011.22;;;31.51;28.93
3150;BME280;32503;47.748;8.960;2022-08-11T13:29:20;97000.78;;;31.51;28.83
3150;BME280;32503;47.748;8.960;2022-08-11T13:31:48;97009.53;;;31.38;28.88
3150;BME280;32503;47.748;8.960;2022-08-11T13:34:17;96992.91;;;31.50;29.13
3150;BME280;32503;47.748;8.960;2022-08-11T13:36:45;97003.09;;;31.53;28.37
3150;BME280;32503;47.748;8.960;2022-08-11T13:39:13;96995.38;;;31.48;29.17
3150;BME280;32503;47.748;8.960;2022-08-11T13:41:42;97004.25;;;31.46;28.86
3150;BME280;32503;47.748;8.960;2022-08-11T13:44:16;96990.78;;;31.45;29.43
3150;BME280;32503;47.748;8.960;2022-08-11T13:46:44;96984.44;;;31.44;28.23
3150;BME280;32503;47.748;8.960;2022-08-11T13:49:15;96976.69;;;31.54;28.37
3150;BME280;32503;47.748;8.960;2022-08-11T13:51:43;96986.78;;;31.72;28.02
3150;BME280;32503;47.748;8.960;2022-08-11T13:54:16;96974.22;;;31.88;28.12
3150;BME280;32503;47.748;8.960;2022-08-11T13:56:47;96977.44;;;32.07;28.09
3150;BME280;32503;47.748;8.960;2022-08-11T13:59:18;96983.78;;;32.07;27.53
3150;BME280;32503;47.748;8.960;2022-08-11T14:01:51;96971.63;;;32.10;27.45
3150;BME280;32503;47.748;8.960;2022-08-11T14:04:27;96963.59;;;32.29;27.71
3150;BME280;32503;47.748;8.960;2022-08-11T14:06:56;96957.03;;;32.38;26.63
3150;BME280;32503;47.748;8.960;2022-08-11T14:09:27;96963.72;;;32.46;27.10
3150;BME280;32503;47.748;8.960;2022-08-11T14:11:59;96952.00;;;32.42;26.68
3150;BME280;32503;47.748;8.960;2022-08-11T14:14:50;96959.19;;;32.55;27.35
3150;BME280;32503;47.748;8.960;2022-08-11T14:17:20;96952.03;;;32.54;26.35
3150;BME280;32503;47.748;8.960;2022-08-11T14:19:50;96957.19;;;32.61;26.77
3150;BME280;32503;47.748;8.960;2022-08-11T14:22:19;96948.06;;;32.66;26.87
3150;BME280;32503;47.748;8.960;2022-08-11T14:24:46;96952.78;;;32.48;27.09
3150;BME280;32503;47.748;8.960;2022-08-11T14:27:16;96951.38;;;32.27;27.30
3150;BME280;32503;47.748;8.960;2022-08-11T14:29:48;96955.72;;;32.28;28.01
3150;BME280;32503;47.748;8.960;2022-08-11T14:32:15;96961.03;;;32.26;27.57
3150;BME280;32503;47.748;8.960;2022-08-11T14:34:44;96955.13;;;32.12;27.21
3150;BME280;32503;47.748;8.960;2022-08-11T14:37:13;96949.81;;;32.20;27.23
3150;BME280;32503;47.748;8.960;2022-08-11T14:39:45;96947.44;;;32.07;27.47
3150;BME280;32503;47.748;8.960;2022-08-11T14:42:15;96951.59;;;32.18;27.60
3150;BME280;32503;47.748;8.960;2022-08-11T14:45:04;96937.41;;;31.95;27.34
3150;BME280;32503;47.748;8.960;2022-08-11T14:47:57;96940.56;;;32.08;27.25
3150;BME280;32503;47.748;8.960;2022-08-11T14:50:30;96941.91;;;32.19;27.61
3150;BME280;32503;47.748;8.960;2022-08-11T14:53:00;96934.84;;;32.23;27.80